Time;durP1;ratioP1;P1;durP2;ratioP2;P2;SDS_P1;SDS_P2;PMS_P1;PMS_P2;Temp;Humidity;BMP_temperature;BMP_pressure;BME280_temperature;BME280_humidity;BME280_pressure;Samples;Min_cycle;Max_cycle;Signal;HPM_P1;HPM_P2
2022/12/17 13:06:47;;;;;;;5.67;4.93;;;23.30;37.80;;;-142.21;31.25;112049.66;5015491;28;20611;-79
2022/12/17 13:09:39;;;;;;;6.93;5.10;;;23.30;37.80;;;-142.21;31.19;112049.66;5015207;28;20215;-79
2022/12/17 13:12:24;;;;;;;6.43;4.90;;;23.30;37.40;;;-142.21;31.22;112049.66;5015964;28;20253;-80
2022/12/17 13:15:02;;;;;;;9.07;5.40;;;23.40;37.80;;;-142.21;31.26;112049.66;5016076;28;20298;-79
2022/12/17 13:17:36;;;;;;;6.57;5.13;;;23.50;37.90;;;-142.21;31.10;112049.66;5014826;28;20191;-79
2022/12/17 13:20:25;;;;;;;5.87;5.27;;;23.50;37.80;;;-142.21;31.24;112049.66;5015397;28;20226;-79
2022/12/17 13:23:06;;;;;;;7.27;5.03;;;23.50;37.90;;;-142.21;31.28;112049.66;5016177;28;20250;-79
2022/12/17 13:25:33;;;;;;;5.97;4.80;;;23.60;37.90;;;-142.21;31.43;112049.66;5014744;28;20189;-79
2022/12/17 13:28:01;;;;;;;5.07;4.17;;;23.60;37.70;;;-142.21;31.68;112049.66;5015409;28;20594;-79
2022/12/17 13:30:36;;;;;;;5.20;4.53;;;23.60;37.70;;;-142.21;31.36;112049.66;5014377;28;20215;-78
2022/12/17 13:33:26;;;;;;;8.40;5.13;;;23.70;37.90;;;-142.21;31.32;112049.66;5014771;28;20296;-78
2022/12/17 13:36:10;;;;;;;6.47;4.63;;;23.70;37.90;;;-142.21;31.14;112049.66;4997974;28;20195;-78
2022/12/17 13:38:52;;;;;;;5.40;4.37;;;23.80;38.00;;;-142.21;31.37;112049.66;5010287;28;20192;-79
2022/12/17 13:41:26;;;;;;;5.83;4.67;;;23.70;37.90;;;-142.21;31.57;112049.66;4995044;28;20455;-79
2022/12/17 13:43:57;;;;;;;4.90;4.37;;;23.80;38.00;;;-142.21;31.35;112049.66;4995347;28;20279;-78
2022/12/17 13:46:28;;;;;;;6.57;4.77;;;23.80;38.00;;;-142.21;31.39;112049.66;4994980;28;20289;-80
2022/12/17 13:48:58;;;;;;;10.30;4.77;;;23.80;38.00;;;-142.21;31.37;112049.66;4995265;28;20214;-81
2022/12/17 13:51:28;;;;;;;10.20;4.63;;;23.80;38.00;;;-142.21;31.49;112049.66;5007748;28;20254;-81
2022/12/17 13:53:59;;;;;;;8.27;6.27;;;23.80;38.00;;;-142.21;30.89;112049.66;5016178;28;20256;-84
2022/12/17 13:56:29;;;;;;;10.00;5.80;;;23.90;37.70;;;-142.21;30.87;112049.66;5016167;28;20207;-84
2022/12/17 13:59:01;;;;;;;6.33;4.90;;;23.80;37.10;;;-142.21;31.21;112049.66;5010162;28;20196;-82
2022/12/17 14:01:31;;;;;;;9.37;5.60;;;23.80;37.60;;;-142.21;31.17;112049.66;4996216;28;20660;-82
2022/12/17 14:04:01;;;;;;;6.77;4.70;;;23.80;37.70;;;-142.21;31.57;112049.66;5006370;28;20648;-83
2022/12/17 14:06:34;;;;;;;5.20;4.70;;;23.80;37.90;;;-142.21;31.51;112049.66;5015919;28;20629;-82
2022/12/17 14:09:03;;;;;;;6.40;4.60;;;23.80;37.90;;;-142.21;31.64;112049.66;5015729;28;20222;-82
2022/12/17 14:14:35;;;;;;;8.23;4.77;;;23.80;38.10;;;-142.21;31.46;112049.66;4955428;28;20210;-82
2022/12/17 14:17:04;;;;;;;5.50;4.73;;;23.80;38.10;;;-142.21;31.30;112049.66;4977526;28;20219;-82
2022/12/17 14:19:33;;;;;;;7.63;4.70;;;23.80;38.10;;;-142.21;31.42;112049.66;4989154;28;20655;-83
2022/12/17 14:22:01;;;;;;;5.83;5.10;;;23.80;38.20;;;-142.21;31.78;112049.66;4998520;28;20310;-83
2022/12/17 14:24:29;;;;;;;6.70;4.97;;;23.80;38.10;;;-142.21;31.48;112049.66;5012105;28;20715;-82
2022/12/17 14:26:59;;;;;;;5.50;4.67;;;23.80;38.10;;;-142.21;31.36;112049.66;5015405;28;20211;-83
2022/12/17 14:29:30;;;;;;;5.73;4.70;;;23.90;38.30;;;-142.21;31.49;112049.66;5013708;28;20235;-85
2022/12/17 14:32:00;;;;;;;6.40;4.63;;;23.80;38.30;;;-142.21;31.57;112049.66;5007448;28;20301;-82
2022/12/17 14:34:41;;;;;;;6.63;4.73;;;23.90;38.30;;;-142.21;31.71;112049.66;5021491;28;20240;-85
2022/12/17 14:37:19;;;;;;;6.17;4.60;;;23.80;38.20;;;-142.21;31.57;112049.66;5035685;28;20638;-82
2022/12/17 14:39:49;;;;;;;5.47;4.57;;;23.90;38.40;;;-142.21;31.65;112049.66;5034207;28;20206;-84
2022/12/17 14:42:29;;;;;;;5.23;4.70;;;24.00;38.40;;;-142.21;31.48;112049.66;5034387;28;20253;-86
2022/12/17 14:45:00;;;;;;;6.57;4.70;;;23.90;38.30;;;-142.21;31.81;112049.66;5029244;28;20273;-85
2022/12/17 14:47:30;;;;;;;6.20;4.70;;;23.90;38.30;;;-142.21;31.75;112049.66;5016456;28;20204;-86
2022/12/17 14:50:24;;;;;;;5.77;4.70;;;24.00;38.40;;;-142.21;31.53;112049.66;5015815;28;20341;-84
2022/12/17 14:52:53;;;;;;;5.13;4.60;;;23.90;38.40;;;-142.21;31.58;112049.66;5016176;28;20222;-83
2022/12/17 14:55:28;;;;;;;5.93;4.47;;;23.90;38.30;;;-142.21;31.57;112049.66;5012910;28;20223;-85
2022/12/17 14:58:19;;;;;;;5.83;4.53;;;23.90;39.00;;;-142.21;31.62;112049.66;5016336;28;20214;-84
2022/12/17 15:00:50;;;;;;;7.77;5.00;;;24.00;38.50;;;-142.21;31.77;112049.66;5015690;28;20256;-83
2022/12/17 15:03:26;;;;;;;6.53;5.10;;;23.90;38.50;;;-142.21;31.80;112049.66;5015704;28;20692;-85
2022/12/17 15:06:01;;;;;;;5.73;4.40;;;24.00;38.50;;;-142.21;31.59;112049.66;5015608;28;20202;-84
2022/12/17 15:08:34;;;;;;;5.97;4.77;;;24.00;38.50;;;-142.21;31.84;112049.66;5014335;28;20217;-83
2022/12/17 15:11:01;;;;;;;5.13;4.30;;;23.90;38.50;;;-142.21;31.86;112049.66;5014668;28;20299;-83
2022/12/17 15:13:37;;;;;;;7.57;5.17;;;24.00;38.50;;;-142.21;31.71;112049.66;5015504;28;20203;-84
2022/12/17 15:16:06;;;;;;;5.33;4.83;;;23.90;38.50;;;-142.21;31.61;112049.66;5015573;28;20290;-84
2022/12/17 15:18:33;;;;;;;6.37;5.07;;;23.90;38.50;;;-142.21;31.60;112049.66;5013233;28;20222;-83
2022/12/17 15:21:03;;;;;;;6.47;4.77;;;23.90;38.40;;;-142.21;31.84;112049.66;5014941;28;20285;-83
2022/12/17 15:23:32;;;;;;;6.00;4.93;;;23.90;38.50;;;-142.21;31.71;112049.66;5015414;28;20265;-82
2022/12/17 15:25:59;;;;;;;5.83;4.50;;;23.90;38.50;;;-142.21;31.86;112049.66;5015101;28;20199;-81
2022/12/17 15:28:27;;;;;;;5.70;4.87;;;23.90;38.50;;;-142.21;31.81;112049.66;5015226;28;20317;-82
2022/12/17 15:30:54;;;;;;;6.87;5.30;;;24.00;38.60;;;-142.21;31.59;112049.66;5014691;28;20698;-82
2022/12/17 15:33:22;;;;;;;7.93;4.57;;;23.90;38.40;;;-142.21;31.78;112049.66;5013477;28;20234;-81
2022/12/17 15:35:49;;;;;;;6.77;4.90;;;23.90;38.40;;;-142.21;31.90;112049.66;5013659;28;20207;-83
2022/12/17 15:38:18;;;;;;;5.60;5.00;;;24.00;38.40;;;-142.21;31.52;112049.66;5014862;28;20210;-81
2022/12/17 15:40:45;;;;;;;6.00;4.70;;;24.00;38.50;;;-142.21;31.88;112049.66;5014316;28;20253;-81
2022/12/17 15:43:12;;;;;;;7.23;5.53;;;24.00;38.40;;;-142.21;31.51;112049.66;5014090;28;20234;-81
2022/12/17 15:45:42;;;;;;;6.17;5.33;;;24.00;38.50;;;-142.21;31.49;112049.66;5014273;28;20261;-82
2022/12/17 15:48:11;;;;;;;9.00;5.17;;;24.00;38.60;;;-142.21;31.46;112049.66;5014819;28;20204;-84
2022/12/17 15:50:39;;;;;;;12.63;6.03;;;24.00;38.60;;;-142.21;31.57;112049.66;5014509;28;20236;-85
2022/12/17 15:53:08;;;;;;;13.13;5.47;;;24.00;38.50;;;-142.21;31.72;112049.66;5014199;28;20207;-84
2022/12/17 15:55:38;;;;;;;10.87;5.00;;;23.90;38.50;;;-142.21;31.61;112049.66;5014157;28;20240;-85
2022/12/17 15:58:06;;;;;;;13.37;9.47;;;23.90;38.50;;;-142.21;29.85;112049.66;5013982;28;20615;-85
2022/12/17 16:00:36;;;;;;;21.53;14.50;;;23.80;36.70;;;-142.21;27.93;112049.66;5022103;28;20198;-85
2022/12/17 16:03:03;;;;;;;14.30;11.57;;;23.60;34.40;;;-142.21;28.84;112049.66;5015229;28;20217;-81
2022/12/17 16:05:31;;;;;;;11.77;8.77;;;23.50;34.70;;;-142.21;30.12;112049.66;5013664;28;20244;-82
2022/12/17 16:08:01;;;;;;;10.03;8.47;;;23.40;35.90;;;-142.21;30.24;112049.66;5013675;28;20264;-81
2022/12/17 16:10:28;;;;;;;14.97;9.20;;;23.40;36.50;;;-142.21;29.57;112049.66;5013315;28;20227;-82
2022/12/17 16:12:57;;;;;;;16.37;14.00;;;23.50;36.50;;;-142.21;27.61;112049.66;5014523;28;20244;-82
2022/12/17 16:15:24;;;;;;;14.33;10.83;;;23.30;33.20;;;-142.21;29.41;112049.66;5014698;28;20211;-83
2022/12/17 16:17:52;;;;;;;23.33;15.77;;;23.00;34.60;;;-142.21;30.02;112049.66;5014644;28;20261;-83
2022/12/17 16:20:19;;;;;;;25.60;16.87;;;23.00;35.50;;;-142.21;30.02;112049.66;5014265;28;20202;-83
2022/12/17 16:22:46;;;;;;;19.13;12.83;;;23.00;36.10;;;-142.21;30.36;112049.66;5014082;28;20334;-83
2022/12/17 16:25:14;;;;;;;21.30;11.87;;;23.10;36.60;;;-142.21;30.39;112049.66;5014098;28;20725;-83
2022/12/17 16:27:41;;;;;;;18.00;11.80;;;23.20;36.90;;;-142.21;30.71;112049.66;5013917;28;20207;-83
2022/12/17 16:30:13;;;;;;;18.17;13.70;;;23.20;37.00;;;-142.21;30.90;112049.66;5013705;28;20231;-83
2022/12/17 16:32:40;;;;;;;18.63;13.30;;;23.20;37.10;;;-142.21;30.85;112049.66;5013096;28;20329;-83
2022/12/17 16:35:08;;;;;;;46.83;33.37;;;23.30;37.20;;;-142.21;31.01;112049.66;5009196;28;20211;-83
2022/12/17 16:37:35;;;;;;;20.63;15.47;;;23.40;37.50;;;-142.21;30.96;112049.66;5013540;28;20626;-83
2022/12/17 16:40:03;;;;;;;25.87;19.33;;;23.40;37.30;;;-142.21;30.90;112049.66;5013453;28;20257;-83
2022/12/17 16:42:30;;;;;;;24.83;17.50;;;23.50;37.60;;;-142.21;30.96;112049.66;5013967;28;20321;-83
2022/12/17 16:44:58;;;;;;;22.47;17.53;;;23.50;37.60;;;-142.21;31.12;112049.66;5013806;28;20246;-83
2022/12/17 16:47:26;;;;;;;22.60;18.57;;;23.50;37.60;;;-142.21;31.16;112049.66;5013793;28;20211;-83
2022/12/17 16:49:54;;;;;;;22.63;16.90;;;23.50;37.50;;;-142.21;31.10;112049.66;5013780;28;20718;-83
2022/12/17 16:52:21;;;;;;;18.93;15.20;;;23.50;37.50;;;-142.21;31.05;112049.66;5013919;28;20268;-83
2022/12/17 16:54:48;;;;;;;24.83;18.03;;;23.50;37.50;;;-142.21;31.19;112049.66;5013736;28;20207;-83
2022/12/17 16:57:15;;;;;;;23.03;16.67;;;23.60;37.70;;;-142.21;31.20;112049.66;5013872;28;20207;-84
2022/12/17 16:59:43;;;;;;;25.87;20.13;;;23.60;38.30;;;-142.21;31.24;112049.66;5013656;28;20226;-83
2022/12/17 17:02:15;;;;;;;25.70;18.47;;;23.60;37.70;;;-142.21;31.19;112049.66;5013546;28;20381;-84
2022/12/17 17:04:44;;;;;;;31.33;25.63;;;23.70;37.90;;;-142.21;30.53;112049.66;5013773;28;20285;-83
2022/12/17 17:07:11;;;;;;;37.73;27.27;;;23.70;37.30;;;-142.21;30.86;112049.66;5013875;28;20280;-82
2022/12/17 17:09:39;;;;;;;23.57;18.67;;;23.70;37.20;;;-142.21;31.15;112049.66;5012838;28;20823;-83
2022/12/17 17:12:07;;;;;;;30.90;21.57;;;23.70;37.60;;;-142.21;31.28;112049.66;5013755;28;20212;-83
2022/12/17 17:14:35;;;;;;;21.47;18.93;;;23.70;37.70;;;-142.21;31.17;112049.66;5012911;28;20241;-82
2022/12/17 17:17:02;;;;;;;31.23;26.90;;;23.70;37.50;;;-142.21;31.08;112049.66;5013092;28;20225;-83
2022/12/17 17:19:29;;;;;;;25.87;21.50;;;23.70;37.70;;;-142.21;31.20;112049.66;5013010;28;20197;-82
2022/12/17 17:21:58;;;;;;;38.10;30.37;;;23.70;37.70;;;-142.21;31.48;112049.66;5013149;28;20199;-83
2022/12/17 17:24:26;;;;;;;30.67;24.77;;;23.80;38.00;;;-142.21;31.50;112049.66;5026194;28;20598;-83
2022/12/17 17:26:55;;;;;;;32.13;24.70;;;23.80;37.90;;;-142.21;31.41;112049.66;5019164;28;20206;-79
2022/12/17 17:29:22;;;;;;;37.30;26.27;;;23.80;38.10;;;-142.21;31.98;112049.66;5000682;28;20232;-79
2022/12/17 17:31:50;;;;;;;42.07;33.23;;;23.80;38.40;;;-142.21;32.18;112049.66;5012768;28;20298;-80
2022/12/17 17:34:17;;;;;;;35.47;27.80;;;23.80;39.00;;;-142.21;31.71;112049.66;5012935;28;20215;-79
2022/12/17 17:36:45;;;;;;;29.87;24.77;;;23.80;38.70;;;-142.21;31.84;112049.66;5011878;28;20211;-79
2022/12/17 17:39:13;;;;;;;33.37;26.20;;;23.80;38.40;;;-142.21;31.55;112049.66;5011581;28;20215;-79
2022/12/17 17:41:41;;;;;;;28.93;25.37;;;23.80;38.30;;;-142.21;31.58;112049.66;5012843;28;20280;-79
2022/12/17 17:44:12;;;;;;;30.27;26.47;;;23.80;38.20;;;-142.21;31.51;112049.66;5015225;28;20241;-79
2022/12/17 17:46:40;;;;;;;27.80;24.50;;;23.90;38.30;;;-142.21;31.42;112049.66;5013950;28;20199;-80
2022/12/17 17:49:09;;;;;;;45.83;38.03;;;23.90;38.20;;;-142.21;31.47;112049.66;5015466;28;20213;-81
2022/12/17 17:51:41;;;;;;;38.47;31.53;;;23.90;38.30;;;-142.21;31.57;112049.66;5019012;28;20266;-80
2022/12/17 17:54:09;;;;;;;30.00;25.60;;;23.90;38.10;;;-142.21;31.44;112049.66;5033325;28;20226;-81
2022/12/17 17:56:41;;;;;;;44.43;36.40;;;23.90;38.00;;;-142.21;31.37;112049.66;5032772;28;20200;-81
2022/12/17 17:59:12;;;;;;;40.33;34.50;;;23.90;38.10;;;-142.21;30.75;112049.66;5031685;28;20725;-80
2022/12/17 18:01:43;;;;;;;44.13;34.83;;;23.90;37.90;;;-142.21;31.28;112049.66;5017504;28;20276;-81
2022/12/17 18:04:14;;;;;;;53.73;42.10;;;23.90;38.10;;;-142.21;31.53;112049.66;5015363;28;20693;-81
2022/12/17 18:06:43;;;;;;;37.47;29.60;;;23.90;38.20;;;-142.21;31.57;112049.66;5015208;28;20269;-80
2022/12/17 18:09:12;;;;;;;45.83;36.57;;;23.90;38.10;;;-142.21;31.60;112049.66;5014355;28;20214;-82
2022/12/17 18:11:43;;;;;;;31.57;27.73;;;24.00;38.30;;;-142.21;31.30;112049.66;5015431;28;20302;-81
2022/12/17 18:14:11;;;;;;;43.53;35.17;;;23.90;38.10;;;-142.21;31.37;112049.66;5015912;28;20745;-79
2022/12/17 18:16:42;;;;;;;44.57;36.03;;;24.00;37.90;;;-142.21;31.39;112049.66;5014697;28;20293;-82
2022/12/17 18:19:13;;;;;;;47.67;35.87;;;23.90;38.00;;;-142.21;31.51;112049.66;5015225;28;20211;-80
2022/12/17 18:21:41;;;;;;;33.37;28.83;;;23.90;38.10;;;-142.21;31.13;112049.66;5015021;28;20235;-81
2022/12/17 18:24:13;;;;;;;32.87;29.37;;;23.90;38.00;;;-142.21;31.44;112049.66;5014678;28;20257;-81
2022/12/17 18:26:51;;;;;;;32.33;27.13;;;23.90;38.10;;;-142.21;31.33;112049.66;5015184;28;20207;-81
2022/12/17 18:29:23;;;;;;;37.83;32.43;;;23.90;38.00;;;-142.21;31.10;112049.66;5003169;28;20207;-81
2022/12/17 18:31:51;;;;;;;37.03;30.43;;;23.90;38.10;;;-142.21;31.39;112049.66;5010734;28;20261;-81
2022/12/17 18:34:22;;;;;;;39.67;30.33;;;23.90;38.00;;;-142.21;31.33;112049.66;4997584;28;20526;-81
2022/12/17 18:36:51;;;;;;;36.63;29.73;;;23.90;38.10;;;-142.21;31.31;112049.66;4977638;28;20229;-81
2022/12/17 18:39:21;;;;;;;34.57;30.13;;;24.00;38.00;;;-142.21;31.41;112049.66;4995685;28;20298;-81
2022/12/17 18:44:39;;;;;;;57.60;45.67;;;23.90;38.00;;;-142.21;31.61;112049.66;4994773;28;20199;-80
2022/12/17 18:47:06;;;;;;;43.10;36.03;;;23.90;38.30;;;-142.21;31.35;112049.66;4995848;28;20195;-82
2022/12/17 18:49:34;;;;;;;37.67;31.73;;;24.00;38.10;;;-142.21;31.04;112049.66;4999194;28;20250;-82
2022/12/17 18:52:01;;;;;;;43.23;36.40;;;24.00;38.10;;;-142.21;31.43;112049.66;5007053;28;20265;-84
2022/12/17 18:54:32;;;;;;;43.60;34.67;;;24.00;38.10;;;-142.21;31.46;112049.66;4994530;28;20234;-82
2022/12/17 18:57:01;;;;;;;43.40;33.03;;;24.00;38.10;;;-142.21;31.33;112049.66;4995135;28;20728;-82
2022/12/17 18:59:30;;;;;;;37.07;30.13;;;24.00;37.90;;;-142.21;30.90;112049.66;4994970;28;20211;-85
2022/12/17 19:01:58;;;;;;;29.17;25.60;;;24.00;37.90;;;-142.21;31.02;112049.66;4995958;28;20294;-82
2022/12/17 19:04:26;;;;;;;30.00;26.00;;;24.00;38.00;;;-142.21;31.26;112049.66;4994870;28;20226;-82
2022/12/17 19:06:54;;;;;;;29.90;25.77;;;24.00;37.90;;;-142.21;30.92;112049.66;4994707;28;20672;-82
2022/12/17 19:09:34;;;;;;;27.73;23.30;;;24.00;37.90;;;-142.21;31.01;112049.66;4994631;28;20238;-83
2022/12/17 19:12:09;;;;;;;29.00;23.13;;;24.00;37.90;;;-142.21;30.93;112049.66;5010850;28;20254;-82
2022/12/17 19:14:37;;;;;;;27.33;24.33;;;24.00;37.90;;;-142.21;30.96;112049.66;5012381;28;20699;-82
2022/12/17 19:21:11;;;;;;;24.63;21.27;;;23.90;36.90;;;-142.21;30.63;112049.66;5102171;27;1308802;-79
2022/12/17 19:23:38;;;;;;;24.80;22.13;;;23.50;37.90;;;-142.21;30.43;112049.66;5116283;28;20187;-78
2022/12/17 19:26:14;;;;;;;24.63;21.10;;;23.50;37.70;;;-142.21;30.44;112049.66;5126650;28;20297;-78
2022/12/17 19:28:42;;;;;;;28.63;23.90;;;23.70;37.80;;;-142.21;30.40;112049.66;5116920;28;20208;-77
2022/12/17 19:31:32;;;;;;;29.03;22.43;;;23.80;37.40;;;-142.21;30.45;112049.66;5110240;28;20311;-77
2022/12/17 19:34:08;;;;;;;23.47;21.00;;;23.80;37.40;;;-142.21;30.82;112049.66;5109184;28;20785;-76
2022/12/17 19:36:52;;;;;;;24.10;20.13;;;23.90;37.50;;;-142.21;30.62;112049.66;5109385;28;20561;-77
2022/12/17 19:39:20;;;;;;;23.87;20.80;;;24.00;37.50;;;-142.21;30.78;112049.66;5109552;28;20778;-79
2022/12/17 19:41:49;;;;;;;27.57;23.03;;;24.00;37.50;;;-142.21;29.77;112049.66;5108101;28;20722;-81
2022/12/17 19:44:18;;;;;;;23.03;20.23;;;24.00;37.00;;;-142.21;30.41;112049.66;5109185;28;20716;-80
2022/12/17 19:46:46;;;;;;;24.30;20.13;;;23.90;36.50;;;-142.21;31.12;112049.66;5109125;28;20239;-78
2022/12/17 19:49:16;;;;;;;22.70;19.83;;;23.90;37.10;;;-142.21;31.08;112049.66;5109565;28;20199;-78
2022/12/17 19:51:44;;;;;;;23.33;20.67;;;23.90;37.50;;;-142.21;31.07;112049.66;5109230;28;20204;-79
2022/12/17 19:54:14;;;;;;;25.73;21.80;;;23.90;37.30;;;-142.21;31.14;112049.66;5109583;28;20203;-78
2022/12/17 19:56:43;;;;;;;24.40;21.37;;;24.00;37.40;;;-142.21;31.00;112049.66;5117682;28;20215;-79
2022/12/17 19:59:18;;;;;;;22.83;20.50;;;24.00;37.20;;;-142.21;30.94;112049.66;5130315;28;20605;-79
2022/12/17 20:01:54;;;;;;;25.13;19.77;;;24.00;37.40;;;-142.21;31.00;112049.66;5122809;28;20220;-77
2022/12/17 20:04:21;;;;;;;22.80;20.20;;;24.00;37.50;;;-142.21;30.98;112049.66;5108045;28;20864;-77
2022/12/17 20:07:01;;;;;;;23.23;20.50;;;24.00;37.40;;;-142.21;30.79;112049.66;5108841;28;20264;-79
2022/12/17 20:09:29;;;;;;;23.77;20.33;;;24.00;37.50;;;-142.21;30.83;112049.66;5109344;28;20208;-77
2022/12/17 20:11:56;;;;;;;21.67;19.37;;;24.00;37.40;;;-142.21;31.02;112049.66;5108766;28;20200;-76
2022/12/17 20:14:28;;;;;;;36.93;27.50;;;24.00;37.40;;;-142.21;30.92;112049.66;5108993;28;20703;-80
2022/12/17 20:16:57;;;;;;;47.43;33.20;;;24.00;37.50;;;-142.21;31.09;112049.66;5108819;28;20299;-78
2022/12/17 20:19:33;;;;;;;43.77;31.87;;;24.10;37.70;;;-142.21;30.89;112049.66;5116847;28;20284;-78
2022/12/17 20:22:16;;;;;;;42.17;31.23;;;24.10;37.80;;;-142.21;31.16;112049.66;5109313;28;20253;-80
2022/12/17 20:24:47;;;;;;;42.20;30.33;;;24.10;37.80;;;-142.21;31.13;112049.66;5124052;28;20244;-80
2022/12/17 20:27:15;;;;;;;43.23;31.23;;;24.10;37.80;;;-142.21;31.47;112049.66;5116216;28;20253;-79
2022/12/17 20:29:45;;;;;;;40.37;29.13;;;24.10;37.70;;;-142.21;30.98;112049.66;5110450;28;20283;-78
2022/12/17 20:32:18;;;;;;;40.43;28.03;;;24.10;37.80;;;-142.21;31.23;112049.66;5110116;28;20263;-79
2022/12/17 20:34:57;;;;;;;36.73;28.43;;;24.10;37.70;;;-142.21;31.17;112049.66;5115498;28;20245;-79
2022/12/17 20:37:24;;;;;;;38.67;28.87;;;24.10;37.70;;;-142.21;31.03;112049.66;5115493;28;20225;-81
2022/12/17 20:39:56;;;;;;;37.63;28.47;;;24.10;37.70;;;-142.21;31.10;112049.66;5114975;28;20296;-80
2022/12/17 20:42:23;;;;;;;36.90;27.37;;;24.20;37.80;;;-142.21;31.44;112049.66;5115615;28;20195;-80
2022/12/17 20:44:50;;;;;;;36.77;27.87;;;24.20;37.70;;;-142.21;31.15;112049.66;5115390;28;20231;-78
2022/12/17 20:47:18;;;;;;;42.90;28.00;;;24.20;37.70;;;-142.21;31.05;112049.66;5115259;28;20207;-81
2022/12/17 20:49:46;;;;;;;34.57;25.87;;;24.20;37.70;;;-142.21;31.12;112049.66;5103007;28;20234;-79
2022/12/17 20:52:15;;;;;;;31.43;25.20;;;24.20;37.70;;;-142.21;31.16;112049.66;5115339;28;20204;-80
2022/12/17 20:54:46;;;;;;;34.93;26.23;;;24.20;37.80;;;-142.21;31.05;112049.66;5114746;28;20239;-80
2022/12/17 20:57:21;;;;;;;32.30;25.30;;;24.30;37.70;;;-142.21;31.12;112049.66;5115394;28;20207;-81
2022/12/17 20:59:51;;;;;;;29.90;25.93;;;24.20;37.70;;;-142.21;31.22;112049.66;5114778;28;20234;-79
2022/12/17 21:02:18;;;;;;;34.23;26.23;;;24.20;37.70;;;-142.21;31.14;112049.66;5115038;28;20260;-79
2022/12/17 21:04:46;;;;;;;30.10;24.57;;;24.20;37.60;;;-142.21;31.22;112049.66;5114861;28;20257;-81
2022/12/17 21:07:13;;;;;;;30.60;25.30;;;24.20;37.60;;;-142.21;31.01;112049.66;5100328;28;20209;-79
2022/12/17 21:09:40;;;;;;;31.03;24.63;;;24.30;37.70;;;-142.21;31.02;112049.66;5094807;28;20197;-80
2022/12/17 21:12:08;;;;;;;32.77;24.60;;;24.30;37.70;;;-142.21;31.41;112049.66;5095539;28;20208;-82
2022/12/17 21:14:37;;;;;;;28.53;23.27;;;24.30;37.70;;;-142.21;31.18;112049.66;5094407;28;20664;-79
2022/12/17 21:17:04;;;;;;;26.80;21.97;;;24.30;37.70;;;-142.21;31.16;112049.66;5094515;28;20196;-81
2022/12/17 21:19:31;;;;;;;30.70;23.47;;;24.30;37.60;;;-142.21;31.16;112049.66;5104279;28;20232;-80
2022/12/17 21:21:58;;;;;;;29.37;23.33;;;24.30;37.70;;;-142.21;31.23;112049.66;5118490;28;20185;-81
2022/12/17 21:24:26;;;;;;;30.07;23.93;;;24.20;37.50;;;-142.21;31.28;112049.66;5104877;28;20204;-78
2022/12/17 21:26:57;;;;;;;27.67;22.17;;;24.30;37.70;;;-142.21;30.99;112049.66;5105282;28;20200;-80
2022/12/17 21:29:24;;;;;;;30.80;22.43;;;24.30;37.60;;;-142.21;30.89;112049.66;5095148;28;20281;-78
2022/12/17 21:31:54;;;;;;;30.57;23.03;;;24.30;37.60;;;-142.21;31.03;112049.66;5094197;28;20216;-80
2022/12/17 21:34:24;;;;;;;26.00;21.07;;;24.30;37.70;;;-142.21;30.99;112049.66;5094627;28;20327;-80
2022/12/17 21:36:52;;;;;;;26.13;21.77;;;24.30;37.70;;;-142.21;31.10;112049.66;5093896;28;20991;-80
2022/12/17 21:39:20;;;;;;;26.57;21.60;;;24.30;37.70;;;-142.21;31.04;112049.66;5094523;28;20250;-80
2022/12/17 21:43:00;;;;;;;26.23;20.60;;;24.30;37.70;;;-142.21;30.94;112049.66;5094072;28;20214;-78
2022/12/17 21:44:41;;;;;;;28.80;21.77;;;24.30;37.60;;;-142.21;30.94;112049.66;5093132;28;20208;-81
2022/12/17 21:47:09;;;;;;;25.17;21.17;;;24.30;37.60;;;-142.21;31.03;112049.66;5094276;28;20246;-80
2022/12/17 21:49:37;;;;;;;24.70;20.40;;;24.30;37.60;;;-142.21;31.14;112049.66;5102325;28;20216;-81
2022/12/17 21:52:04;;;;;;;24.87;21.10;;;24.30;37.60;;;-142.21;31.08;112049.66;5114221;28;20208;-78
2022/12/17 21:54:44;;;;;;;25.57;21.00;;;24.30;37.70;;;-142.21;31.13;112049.66;5114425;28;20214;-78
2022/12/17 21:57:11;;;;;;;24.47;20.63;;;24.30;37.60;;;-142.21;31.12;112049.66;5114471;28;20203;-78
2022/12/17 21:59:38;;;;;;;26.13;19.07;;;24.30;37.60;;;-142.21;30.98;112049.66;5113280;28;20581;-78
2022/12/17 22:02:06;;;;;;;23.10;20.07;;;24.30;37.50;;;-142.21;31.05;112049.66;5114187;28;20660;-79
2022/12/17 22:04:40;;;;;;;24.23;20.50;;;24.30;37.60;;;-142.21;31.14;112049.66;5114094;28;20207;-79
2022/12/17 22:07:07;;;;;;;22.37;18.93;;;24.30;37.70;;;-142.21;30.98;112049.66;5113956;28;20256;-79
2022/12/17 22:09:37;;;;;;;22.07;18.90;;;24.30;37.60;;;-142.21;31.02;112049.66;5098127;28;20231;-78
2022/12/17 22:14:52;;;;;;;23.20;19.23;;;24.30;37.70;;;-142.21;30.92;112049.66;5113189;28;20536;-79
2022/12/17 22:17:20;;;;;;;22.53;18.83;;;24.30;37.70;;;-142.21;30.97;112049.66;5113912;28;20204;-80
2022/12/17 22:19:51;;;;;;;24.10;19.97;;;24.30;37.60;;;-142.21;31.01;112049.66;5094985;28;20224;-79
2022/12/17 22:22:19;;;;;;;21.83;18.53;;;24.30;37.70;;;-142.21;30.98;112049.66;5093453;28;20581;-80
2022/12/17 22:24:49;;;;;;;21.90;18.07;;;24.30;37.60;;;-142.21;30.93;112049.66;5097756;28;20554;-80
2022/12/17 22:27:16;;;;;;;21.70;18.97;;;24.30;37.70;;;-142.21;31.02;112049.66;5113892;28;20268;-78
2022/12/17 22:35:14;;;;;;;21.63;18.10;;;24.30;37.60;;;-142.21;31.07;112049.66;5099490;28;20659;-79
2022/12/17 22:37:41;;;;;;;21.77;19.03;;;24.30;37.70;;;-142.21;30.95;112049.66;5113351;28;20242;-80
2022/12/17 22:40:13;;;;;;;21.93;18.07;;;24.30;37.60;;;-142.21;31.03;112049.66;5094396;28;20658;-80
2022/12/17 22:45:42;;;;;;;20.27;17.93;;;24.30;37.60;;;-142.21;30.93;112049.66;5113423;28;20211;-79
2022/12/17 22:48:15;;;;;;;21.10;17.43;;;24.30;37.70;;;-142.21;31.05;112049.66;5088556;28;20279;-79
2022/12/17 22:50:44;;;;;;;22.23;18.03;;;24.30;37.60;;;-142.21;31.10;112049.66;5092523;28;20220;-78
2022/12/17 22:53:12;;;;;;;21.10;16.60;;;24.20;37.50;;;-142.21;30.82;112049.66;5109777;28;20203;-79
2022/12/17 22:55:40;;;;;;;22.57;18.13;;;24.30;37.70;;;-142.21;30.96;112049.66;5113202;28;20608;-78
2022/12/17 22:58:09;;;;;;;44.87;33.20;;;24.30;37.50;;;-142.21;31.05;112049.66;5113603;28;20207;-80
2022/12/17 23:00:39;;;;;;;60.80;40.90;;;24.30;37.50;;;-142.21;31.12;112049.66;5111629;28;20302;-78
2022/12/17 23:03:06;;;;;;;45.83;32.17;;;24.20;37.50;;;-142.21;30.75;112049.66;5113112;28;20207;-79
2022/12/17 23:05:33;;;;;;;37.00;27.90;;;24.20;37.50;;;-142.21;30.29;112049.66;5112806;28;20295;-77
2022/12/17 23:08:02;;;;;;;36.53;26.97;;;24.20;37.40;;;-142.21;30.51;112049.66;5112438;28;20243;-77
2022/12/17 23:10:29;;;;;;;34.50;24.93;;;24.10;37.00;;;-142.21;31.08;112049.66;5113025;28;20249;-76
2022/12/17 23:13:00;;;;;;;32.57;23.47;;;24.10;38.00;;;-142.21;30.97;112049.66;5112351;28;20286;-77
2022/12/17 23:15:33;;;;;;;30.57;23.33;;;24.10;37.50;;;-142.21;30.89;112049.66;5098045;28;20263;-75
2022/12/17 23:18:03;;;;;;;33.30;23.63;;;24.10;37.50;;;-142.21;30.73;112049.66;5092124;28;20264;-82
2022/12/17 23:20:34;;;;;;;31.53;23.20;;;24.10;37.50;;;-142.21;31.06;112049.66;5092112;28;20619;-78
2022/12/17 23:23:02;;;;;;;33.00;22.87;;;24.10;37.50;;;-142.21;30.88;112049.66;5092486;28;20579;-76
2022/12/17 23:25:30;;;;;;;26.40;22.00;;;24.10;37.50;;;-142.21;30.91;112049.66;5103380;28;20226;-77
2022/12/17 23:27:57;;;;;;;26.53;20.40;;;24.10;37.50;;;-142.21;30.94;112049.66;5112225;28;20207;-77
2022/12/17 23:30:24;;;;;;;27.83;21.13;;;24.10;37.40;;;-142.21;30.89;112049.66;5112675;28;20220;-77